Other Surface Observations
Issued by NWS Great Falls, MT

Home | Current Version | Previous Version | Text Only | Print | Product List | Glossary On
Versions: 1 2 3 4 5 6 7 8 9 10 11 12 13 14 15 16 17 18 19 20 21 22 23 24 25 26 27 28 29 30 31 32 33 34 35 36 37 38 39 40 41 42 43 44 45 46 47 48 49 50
385
SXUS55 KTFX 210529
OSOTFX
AREA AWOS OBSERVATIONS
NATIONAL WEATHER SERVICE GREAT FALLS MT
1129 PM MDT FRI OCT 20 2017

METAR KPWD 210530Z AUTO 27019G23KT 10SM 12/00 A2930 RMK PLENTYWOOD
METAR KPO1 210530Z AUTO 26018G25KT 8SM 12/02 A2938 RMK POPLAR
METAR K1S3 210530Z AUTO 26013G20KT 09/01 A2957 RMK FORSYTH
METAR KS71 210530Z AUTO 26014G20KT 10SM 07/04 A2952 RMK CHINOOK
METAR K38S 210530Z AUTO 27005KT 10SM 03/M06 A2983 RMK DEER LODGE
METAR K3U3 210530Z AUTO 24007KT 10SM 01/M05 A2983 RMK ANACONDA
METAR K6S5 210530Z AUTO 17005KT 10SM 03/01 A2987 RMK HAMILTON
METAR KS59 210530Z AUTO 00000KT 6SM 04/03 A2977 RMK LIBBY
METAR K88M 210530Z AUTO 10SM 06/M01 A2976 RMK EUREKA



USA.gov is the U.S. government's official web portal to all federal, state and local government web resources and services.